Time;durP1;ratioP1;P1;durP2;ratioP2;P2;SDS_P1;SDS_P2;PMS_P1;PMS_P2;Temp;Humidity;BMP_temperature;BMP_pressure;BME280_temperature;BME280_humidity;BME280_pressure;Samples;Min_cycle;Max_cycle;Signal;HPM_P1;HPM_P2
2021/10/16 00:00:42;;;;;;;8.82;6.40;;;;;;;;;;4941262;29;20114;-76
2021/10/16 00:03:08;;;;;;;8.55;6.10;;;;;;;;;;4942151;29;20058;-77
2021/10/16 00:05:34;;;;;;;9.13;6.68;;;;;;;;;;4960056;29;20035;-77
2021/10/16 00:08:00;;;;;;;11.40;5.80;;;;;;;;;;4959411;29;20046;-76
2021/10/16 00:10:26;;;;;;;9.57;5.93;;;;;;;;;;4957740;29;20031;-76
2021/10/16 00:12:52;;;;;;;8.25;6.05;;;;;;;;;;4960164;29;20023;-76
2021/10/16 00:15:18;;;;;;;9.95;6.57;;;;;;;;;;4958520;29;20384;-76
2021/10/16 00:17:44;;;;;;;7.38;5.90;;;;;;;;;;4960670;29;20118;-76
2021/10/16 00:20:11;;;;;;;10.35;6.68;;;;;;;;;;4958363;29;20589;-77
2021/10/16 00:22:37;;;;;;;10.38;6.35;;;;;;;;;;4942736;29;20122;-75
2021/10/16 00:25:04;;;;;;;9.13;7.00;;;;;;;;;;4960056;29;20047;-77
2021/10/16 00:27:30;;;;;;;9.13;6.55;;;;;;;;;;4953551;29;20035;-77
2021/10/16 00:29:56;;;;;;;10.18;7.20;;;;;;;;;;4950272;29;20075;-77
2021/10/16 00:32:22;;;;;;;10.40;7.65;;;;;;;;;;4957600;29;20027;-77
2021/10/16 00:34:48;;;;;;;11.65;7.63;;;;;;;;;;4958138;29;20035;-77
2021/10/16 00:37:14;;;;;;;10.00;7.28;;;;;;;;;;4957953;29;20037;-78
2021/10/16 00:39:40;;;;;;;11.15;8.00;;;;;;;;;;4936697;29;20036;-79
2021/10/16 00:42:07;;;;;;;12.40;8.05;;;;;;;;;;4954158;29;20027;-78
2021/10/16 00:44:34;;;;;;;9.38;7.68;;;;;;;;;;4934278;29;20035;-79
2021/10/16 00:47:00;;;;;;;10.20;7.57;;;;;;;;;;4935659;29;20071;-78
2021/10/16 00:49:27;;;;;;;12.27;7.90;;;;;;;;;;4952211;29;20031;-76
2021/10/16 00:51:53;;;;;;;10.20;7.85;;;;;;;;;;4953455;29;20027;-79
2021/10/16 00:54:20;;;;;;;10.73;7.95;;;;;;;;;;4951167;28;20050;-78
2021/10/16 00:56:48;;;;;;;10.98;7.65;;;;;;;;;;4937145;29;20027;-80
2021/10/16 00:59:14;;;;;;;9.52;7.60;;;;;;;;;;4952884;29;20066;-80
2021/10/16 01:01:40;;;;;;;10.50;8.10;;;;;;;;;;4961098;29;20035;-79
2021/10/16 01:04:06;;;;;;;10.40;7.47;;;;;;;;;;4963242;29;20108;-78
2021/10/16 01:06:33;;;;;;;11.27;6.85;;;;;;;;;;4966132;29;20031;-78
2021/10/16 01:08:59;;;;;;;8.38;6.53;;;;;;;;;;4959911;29;20071;-78
2021/10/16 01:11:39;;;;;;;9.25;6.15;;;;;;;;;;4968624;29;20063;-77
2021/10/16 01:14:07;;;;;;;9.02;6.60;;;;;;;;;;4973620;29;20108;-78
2021/10/16 01:16:34;;;;;;;8.90;6.15;;;;;;;;;;4971494;29;20019;-78
2021/10/16 01:19:00;;;;;;;10.00;6.72;;;;;;;;;;4954677;29;20023;-78
2021/10/16 01:21:26;;;;;;;9.45;6.28;;;;;;;;;;4953162;29;20106;-79
2021/10/16 01:23:53;;;;;;;11.10;7.07;;;;;;;;;;4952633;29;20067;-78
2021/10/16 01:26:19;;;;;;;11.65;7.53;;;;;;;;;;4952962;29;20043;-79
2021/10/16 01:28:45;;;;;;;11.88;7.88;;;;;;;;;;4952578;29;20055;-78
2021/10/16 01:31:12;;;;;;;13.35;8.50;;;;;;;;;;4942839;28;20031;-79
2021/10/16 01:33:38;;;;;;;13.15;8.52;;;;;;;;;;4954133;29;20046;-79
2021/10/16 01:36:05;;;;;;;10.75;8.43;;;;;;;;;;4935731;29;20028;-78
2021/10/16 01:38:31;;;;;;;11.93;9.20;;;;;;;;;;4934825;29;20035;-77
2021/10/16 01:40:57;;;;;;;13.13;8.88;;;;;;;;;;4937166;29;20098;-78
2021/10/16 01:43:23;;;;;;;12.23;8.32;;;;;;;;;;4953671;29;20070;-78
2021/10/16 01:45:53;;;;;;;10.80;8.20;;;;;;;;;;4952361;29;20094;-78
2021/10/16 01:48:22;;;;;;;10.07;7.00;;;;;;;;;;4953040;29;20112;-78
2021/10/16 01:50:48;;;;;;;9.98;7.68;;;;;;;;;;4935540;29;20031;-78
2021/10/16 01:53:14;;;;;;;9.93;7.70;;;;;;;;;;4950785;29;20163;-78
2021/10/16 01:55:40;;;;;;;10.45;8.13;;;;;;;;;;4953061;29;20019;-77
2021/10/16 01:58:07;;;;;;;12.25;7.88;;;;;;;;;;4952715;29;20030;-77
2021/10/16 02:00:33;;;;;;;11.63;8.32;;;;;;;;;;4952641;29;20035;-77
2021/10/16 02:02:59;;;;;;;9.88;7.72;;;;;;;;;;4952668;29;20035;-77
2021/10/16 02:05:25;;;;;;;14.15;8.32;;;;;;;;;;4952866;29;20031;-78
2021/10/16 02:07:51;;;;;;;11.57;9.00;;;;;;;;;;4952423;28;20042;-78
2021/10/16 02:10:17;;;;;;;15.15;8.93;;;;;;;;;;4956347;29;20036;-78
2021/10/16 02:12:43;;;;;;;12.68;9.13;;;;;;;;;;4956427;29;20032;-78
2021/10/16 02:15:09;;;;;;;12.30;8.27;;;;;;;;;;4957349;29;20020;-78
2021/10/16 02:17:35;;;;;;;10.98;9.18;;;;;;;;;;4966561;29;20104;-77
2021/10/16 02:20:01;;;;;;;12.85;10.50;;;;;;;;;;4973780;29;20035;-77
2021/10/16 02:22:27;;;;;;;14.98;10.20;;;;;;;;;;4949135;29;20249;-78
2021/10/16 02:24:53;;;;;;;18.17;10.98;;;;;;;;;;4961450;29;20031;-77
2021/10/16 02:27:19;;;;;;;17.08;11.48;;;;;;;;;;4973875;29;20035;-77
2021/10/16 02:29:45;;;;;;;16.40;11.07;;;;;;;;;;4972668;29;20138;-77
2021/10/16 02:32:11;;;;;;;16.42;10.65;;;;;;;;;;4936500;29;20115;-77
2021/10/16 02:34:37;;;;;;;13.85;9.95;;;;;;;;;;4955531;29;20393;-77
2021/10/16 02:37:03;;;;;;;15.32;10.13;;;;;;;;;;4955898;29;20027;-77
2021/10/16 02:39:30;;;;;;;12.60;8.95;;;;;;;;;;4954983;29;20035;-77
2021/10/16 02:41:57;;;;;;;16.95;11.43;;;;;;;;;;4955772;29;20028;-77
2021/10/16 02:44:23;;;;;;;14.35;10.02;;;;;;;;;;4955744;29;20030;-78
2021/10/16 02:46:49;;;;;;;12.25;9.27;;;;;;;;;;4937507;29;20416;-77
2021/10/16 02:49:15;;;;;;;13.25;10.00;;;;;;;;;;4955130;29;20031;-78
2021/10/16 02:51:41;;;;;;;12.98;9.07;;;;;;;;;;4956527;29;20034;-77
2021/10/16 02:54:07;;;;;;;15.00;10.60;;;;;;;;;;4939684;29;20031;-78
2021/10/16 02:56:33;;;;;;;16.15;12.25;;;;;;;;;;4957367;29;20461;-77
2021/10/16 02:58:59;;;;;;;16.25;12.23;;;;;;;;;;4957101;29;20047;-77
2021/10/16 03:01:25;;;;;;;17.20;12.20;;;;;;;;;;4955492;29;20094;-78
2021/10/16 03:03:51;;;;;;;20.92;13.98;;;;;;;;;;4937557;29;20043;-78
2021/10/16 03:06:17;;;;;;;26.00;14.77;;;;;;;;;;4956415;29;20039;-78
2021/10/16 03:08:43;;;;;;;29.60;18.38;;;;;;;;;;4938010;29;20031;-78
2021/10/16 03:11:09;;;;;;;31.33;18.95;;;;;;;;;;4955313;29;20078;-78
2021/10/16 03:13:36;;;;;;;30.42;19.40;;;;;;;;;;4938212;29;20020;-78
2021/10/16 03:16:02;;;;;;;31.45;20.02;;;;;;;;;;4955896;29;20389;-78
2021/10/16 03:18:28;;;;;;;29.67;18.55;;;;;;;;;;4954816;28;20400;-77
2021/10/16 03:20:54;;;;;;;29.00;18.45;;;;;;;;;;4936796;29;20055;-78
2021/10/16 03:23:20;;;;;;;34.03;17.83;;;;;;;;;;4955798;29;20027;-77
2021/10/16 03:25:46;;;;;;;28.55;18.63;;;;;;;;;;4944458;28;20035;-78
2021/10/16 03:28:12;;;;;;;27.27;16.70;;;;;;;;;;4952223;28;20051;-77
2021/10/16 03:30:39;;;;;;;29.67;17.90;;;;;;;;;;4969682;29;20380;-77
2021/10/16 03:33:06;;;;;;;29.27;18.55;;;;;;;;;;4964394;29;20033;-77
2021/10/16 03:35:32;;;;;;;32.78;19.55;;;;;;;;;;4954327;29;20019;-77
2021/10/16 03:37:58;;;;;;;41.95;22.02;;;;;;;;;;4954660;29;20019;-78
2021/10/16 03:40:24;;;;;;;37.05;21.52;;;;;;;;;;4954390;29;20039;-77
2021/10/16 03:42:50;;;;;;;39.67;23.77;;;;;;;;;;4954963;29;20039;-78
2021/10/16 03:45:16;;;;;;;40.75;22.23;;;;;;;;;;4955351;29;20039;-78
2021/10/16 03:47:42;;;;;;;39.58;22.00;;;;;;;;;;4952786;29;20495;-78
2021/10/16 03:50:08;;;;;;;40.13;23.00;;;;;;;;;;4952426;29;20408;-78
2021/10/16 03:52:34;;;;;;;41.00;23.92;;;;;;;;;;4937692;29;20031;-78
2021/10/16 03:55:00;;;;;;;41.50;23.38;;;;;;;;;;4954222;29;20141;-78
2021/10/16 03:57:26;;;;;;;37.20;21.95;;;;;;;;;;4937774;29;20031;-77
2021/10/16 03:59:52;;;;;;;43.33;23.70;;;;;;;;;;4950722;29;20023;-77
2021/10/16 04:02:19;;;;;;;40.25;21.90;;;;;;;;;;4937058;29;20027;-77
2021/10/16 04:04:45;;;;;;;39.72;22.52;;;;;;;;;;4954060;29;20030;-77
2021/10/16 04:07:11;;;;;;;40.50;21.77;;;;;;;;;;4954040;28;20031;-78
2021/10/16 04:09:38;;;;;;;39.22;21.73;;;;;;;;;;4954896;29;20039;-78
2021/10/16 04:12:04;;;;;;;41.28;22.35;;;;;;;;;;4953995;29;20042;-78
2021/10/16 04:14:30;;;;;;;34.55;20.50;;;;;;;;;;4954110;29;20031;-78
2021/10/16 04:16:56;;;;;;;35.35;21.90;;;;;;;;;;4952783;29;20388;-78
2021/10/16 04:19:22;;;;;;;32.78;21.10;;;;;;;;;;4953039;29;20125;-78
2021/10/16 04:21:48;;;;;;;41.60;20.80;;;;;;;;;;4953682;29;20035;-78
2021/10/16 04:24:14;;;;;;;35.35;20.15;;;;;;;;;;4937262;29;20039;-79
2021/10/16 04:26:40;;;;;;;39.15;19.88;;;;;;;;;;4953829;29;20031;-79
2021/10/16 04:29:06;;;;;;;35.80;20.20;;;;;;;;;;4954312;29;20527;-77
2021/10/16 04:31:32;;;;;;;41.97;19.00;;;;;;;;;;4952406;28;20051;-78
2021/10/16 04:33:59;;;;;;;36.53;18.00;;;;;;;;;;4950858;29;20031;-77
2021/10/16 04:36:25;;;;;;;32.20;19.35;;;;;;;;;;4953484;29;20027;-78
2021/10/16 04:38:51;;;;;;;33.97;18.52;;;;;;;;;;4936276;29;20497;-77
2021/10/16 04:41:18;;;;;;;29.65;18.45;;;;;;;;;;4953936;29;20027;-78
2021/10/16 04:43:44;;;;;;;30.05;18.60;;;;;;;;;;4937435;29;20039;-78
2021/10/16 04:46:11;;;;;;;27.80;17.75;;;;;;;;;;4934709;29;20381;-78
2021/10/16 04:48:43;;;;;;;30.90;19.00;;;;;;;;;;4953291;29;20038;-78
2021/10/16 04:51:13;;;;;;;34.55;18.65;;;;;;;;;;4951771;29;20027;-78
2021/10/16 04:53:39;;;;;;;33.25;19.13;;;;;;;;;;4951818;29;20114;-78
2021/10/16 04:56:05;;;;;;;31.15;19.88;;;;;;;;;;4953843;29;20028;-78
2021/10/16 04:58:31;;;;;;;34.20;20.30;;;;;;;;;;4953941;29;20642;-78
2021/10/16 05:00:57;;;;;;;33.85;19.40;;;;;;;;;;4953033;29;20039;-78
2021/10/16 05:03:23;;;;;;;35.80;19.88;;;;;;;;;;4953810;29;20078;-78
2021/10/16 05:05:50;;;;;;;31.50;18.55;;;;;;;;;;4954153;29;20023;-78
2021/10/16 05:08:16;;;;;;;37.72;20.98;;;;;;;;;;4953610;29;20078;-78
2021/10/16 05:10:42;;;;;;;36.75;20.73;;;;;;;;;;4954348;29;20027;-78
2021/10/16 05:13:09;;;;;;;38.75;21.02;;;;;;;;;;4952474;29;20042;-78
2021/10/16 05:15:35;;;;;;;35.20;20.67;;;;;;;;;;4936845;29;20588;-77
2021/10/16 05:18:01;;;;;;;36.33;20.38;;;;;;;;;;4954382;29;20071;-78
2021/10/16 05:20:27;;;;;;;39.83;20.50;;;;;;;;;;4953735;29;20078;-78
2021/10/16 05:22:53;;;;;;;35.40;21.45;;;;;;;;;;4953710;29;20035;-78
2021/10/16 05:25:19;;;;;;;37.10;20.10;;;;;;;;;;4938730;29;20039;-78
2021/10/16 05:27:45;;;;;;;36.78;20.75;;;;;;;;;;4971150;29;20047;-76
2021/10/16 05:30:11;;;;;;;32.55;19.95;;;;;;;;;;4971603;29;20032;-77
2021/10/16 05:32:37;;;;;;;39.22;20.27;;;;;;;;;;4963200;29;20142;-77
2021/10/16 05:35:04;;;;;;;34.72;19.90;;;;;;;;;;4937364;29;20357;-78
2021/10/16 05:37:30;;;;;;;34.30;18.95;;;;;;;;;;4954144;29;20443;-78
2021/10/16 05:39:56;;;;;;;32.65;19.13;;;;;;;;;;4935205;29;20090;-77
2021/10/16 05:42:22;;;;;;;36.00;19.05;;;;;;;;;;4954112;28;20476;-77
2021/10/16 05:44:48;;;;;;;40.25;21.70;;;;;;;;;;4957422;29;20444;-77
2021/10/16 05:47:15;;;;;;;39.45;20.80;;;;;;;;;;4952634;29;20035;-78
2021/10/16 05:49:41;;;;;;;43.88;22.17;;;;;;;;;;4937646;29;20082;-78
2021/10/16 05:52:07;;;;;;;42.20;22.13;;;;;;;;;;4954824;29;20086;-77
2021/10/16 05:54:33;;;;;;;43.72;21.85;;;;;;;;;;4955297;29;20456;-77
2021/10/16 05:56:59;;;;;;;41.55;23.23;;;;;;;;;;4938444;29;20028;-77
2021/10/16 05:59:25;;;;;;;45.92;23.15;;;;;;;;;;4953862;29;20416;-77
2021/10/16 06:01:51;;;;;;;41.03;21.55;;;;;;;;;;4953883;29;20459;-78
2021/10/16 06:04:17;;;;;;;45.72;23.13;;;;;;;;;;4955009;29;20114;-77
2021/10/16 06:06:44;;;;;;;43.92;23.13;;;;;;;;;;4954949;29;20027;-78
2021/10/16 06:09:10;;;;;;;40.88;20.10;;;;;;;;;;4953837;29;20024;-77
2021/10/16 06:11:36;;;;;;;43.47;22.15;;;;;;;;;;4919190;29;20034;-77
2021/10/16 06:14:02;;;;;;;38.63;21.80;;;;;;;;;;4939595;29;20032;-78
2021/10/16 06:16:28;;;;;;;45.40;23.30;;;;;;;;;;4920804;29;20032;-78
2021/10/16 06:18:54;;;;;;;47.03;23.23;;;;;;;;;;4934314;29;20111;-78
2021/10/16 06:21:20;;;;;;;43.70;22.38;;;;;;;;;;4956494;29;20067;-77
2021/10/16 06:23:46;;;;;;;47.78;24.27;;;;;;;;;;4957061;29;20046;-78
2021/10/16 06:26:12;;;;;;;45.47;22.25;;;;;;;;;;4956300;29;20027;-78
2021/10/16 06:28:38;;;;;;;45.03;22.23;;;;;;;;;;4940697;29;20470;-78
2021/10/16 06:31:04;;;;;;;42.65;21.88;;;;;;;;;;4960132;29;20035;-78
2021/10/16 06:33:31;;;;;;;42.05;20.67;;;;;;;;;;4959842;29;20039;-78
2021/10/16 06:35:59;;;;;;;38.15;20.67;;;;;;;;;;4958982;29;20033;-78
2021/10/16 06:38:25;;;;;;;36.75;20.25;;;;;;;;;;4958830;29;20404;-78
2021/10/16 06:40:51;;;;;;;36.92;20.13;;;;;;;;;;4941745;29;20028;-78
2021/10/16 06:43:17;;;;;;;37.67;19.92;;;;;;;;;;4926774;29;20039;-78
2021/10/16 06:45:43;;;;;;;37.63;19.80;;;;;;;;;;4965705;29;20031;-77
2021/10/16 06:48:09;;;;;;;37.60;22.00;;;;;;;;;;4973249;29;20031;-78
2021/10/16 06:50:35;;;;;;;35.25;20.65;;;;;;;;;;4969111;29;20436;-78
2021/10/16 06:53:01;;;;;;;40.90;21.52;;;;;;;;;;4950116;28;20059;-78
2021/10/16 06:55:27;;;;;;;33.90;18.77;;;;;;;;;;4954025;28;20036;-77
2021/10/16 06:57:53;;;;;;;27.48;16.75;;;;;;;;;;4955643;29;20416;-77
2021/10/16 07:00:19;;;;;;;32.95;18.13;;;;;;;;;;4938148;29;20043;-77
2021/10/16 07:02:45;;;;;;;30.33;17.67;;;;;;;;;;4955163;29;20107;-77
2021/10/16 07:05:12;;;;;;;29.95;17.50;;;;;;;;;;4955109;29;20040;-77
2021/10/16 07:07:38;;;;;;;32.70;18.33;;;;;;;;;;4954979;29;20110;-77
2021/10/16 07:10:04;;;;;;;33.03;17.98;;;;;;;;;;4954425;29;20039;-77
2021/10/16 07:12:33;;;;;;;34.22;19.17;;;;;;;;;;4937861;29;20026;-77
2021/10/16 07:14:59;;;;;;;35.50;19.27;;;;;;;;;;4955283;29;20027;-77
2021/10/16 07:17:25;;;;;;;30.90;18.73;;;;;;;;;;4938293;29;20035;-79
2021/10/16 07:19:51;;;;;;;31.55;18.15;;;;;;;;;;4956523;29;20170;-79
2021/10/16 07:22:19;;;;;;;28.05;17.58;;;;;;;;;;4958188;29;20059;-79
2021/10/16 07:24:44;;;;;;;34.92;21.27;;;;;;;;;;4962245;29;20027;-79
2021/10/16 07:27:10;;;;;;;32.97;19.20;;;;;;;;;;4962281;29;20033;-78
2021/10/16 07:29:37;;;;;;;34.00;20.10;;;;;;;;;;4961183;29;20059;-78
2021/10/16 07:32:03;;;;;;;32.75;19.10;;;;;;;;;;4954797;29;20106;-78
2021/10/16 07:34:29;;;;;;;33.30;19.38;;;;;;;;;;4962649;29;20039;-79
2021/10/16 07:36:55;;;;;;;31.13;18.90;;;;;;;;;;4939168;29;20039;-79
2021/10/16 07:39:21;;;;;;;31.75;18.42;;;;;;;;;;4939533;29;20485;-79
2021/10/16 07:41:47;;;;;;;29.73;17.08;;;;;;;;;;4938301;29;20035;-79
2021/10/16 07:44:14;;;;;;;32.85;17.60;;;;;;;;;;4956073;29;20035;-78
2021/10/16 07:46:40;;;;;;;31.42;16.88;;;;;;;;;;4955265;29;20030;-80
2021/10/16 07:49:06;;;;;;;29.50;17.50;;;;;;;;;;4955948;29;20075;-78
2021/10/16 07:51:32;;;;;;;29.45;17.13;;;;;;;;;;4955286;29;20471;-79
2021/10/16 07:53:58;;;;;;;31.40;17.65;;;;;;;;;;4954366;29;20038;-78
2021/10/16 07:56:24;;;;;;;30.98;17.83;;;;;;;;;;4954400;29;20032;-79
2021/10/16 07:58:50;;;;;;;33.75;18.40;;;;;;;;;;4955388;29;20074;-78
2021/10/16 08:01:16;;;;;;;30.85;18.15;;;;;;;;;;4936590;29;20078;-78
2021/10/16 08:03:42;;;;;;;33.17;18.33;;;;;;;;;;4953707;29;20115;-79
2021/10/16 08:06:09;;;;;;;34.33;18.20;;;;;;;;;;4954240;28;20119;-78
2021/10/16 08:08:35;;;;;;;33.38;18.25;;;;;;;;;;4955115;29;20033;-77
2021/10/16 08:11:01;;;;;;;34.15;18.63;;;;;;;;;;4952479;29;20118;-78
2021/10/16 08:13:29;;;;;;;30.45;18.10;;;;;;;;;;4954256;29;20023;-76
2021/10/16 08:15:55;;;;;;;30.75;17.83;;;;;;;;;;4954027;29;20031;-77
2021/10/16 08:18:21;;;;;;;34.83;18.38;;;;;;;;;;4953083;29;20138;-77
2021/10/16 08:20:47;;;;;;;33.92;17.70;;;;;;;;;;4953969;29;20139;-77
2021/10/16 08:23:13;;;;;;;28.70;16.88;;;;;;;;;;4953784;29;20062;-77
2021/10/16 08:25:39;;;;;;;27.15;16.80;;;;;;;;;;4952750;29;20020;-77
2021/10/16 08:28:10;;;;;;;26.25;15.40;;;;;;;;;;4953982;29;20555;-77
2021/10/16 08:30:36;;;;;;;33.88;18.63;;;;;;;;;;4953856;29;20053;-77
2021/10/16 08:33:02;;;;;;;23.50;15.25;;;;;;;;;;4937138;29;20526;-76
2021/10/16 08:35:28;;;;;;;29.20;16.80;;;;;;;;;;4953791;29;20093;-79
2021/10/16 08:37:54;;;;;;;29.02;16.95;;;;;;;;;;4953764;29;20023;-77
2021/10/16 08:40:20;;;;;;;30.65;17.23;;;;;;;;;;4953556;29;20601;-77
2021/10/16 08:42:46;;;;;;;25.42;15.70;;;;;;;;;;4936561;29;20027;-77
2021/10/16 08:45:12;;;;;;;31.25;16.15;;;;;;;;;;4936854;29;20031;-77
2021/10/16 08:47:39;;;;;;;23.25;14.70;;;;;;;;;;4953324;29;20043;-77
2021/10/16 08:50:07;;;;;;;24.02;14.68;;;;;;;;;;4953347;29;20039;-78
2021/10/16 08:52:33;;;;;;;29.05;16.92;;;;;;;;;;4953857;29;20034;-77
2021/10/16 08:55:00;;;;;;;25.63;15.77;;;;;;;;;;4954201;29;20527;-77
2021/10/16 08:57:32;;;;;;;25.67;17.50;;;;;;;;;;4936739;29;20031;-77
2021/10/16 08:59:58;;;;;;;23.83;14.63;;;;;;;;;;4953553;29;20055;-77
2021/10/16 09:02:35;;;;;;;22.23;15.27;;;;;;;;;;4953573;29;20019;-77
2021/10/16 09:05:11;;;;;;;23.48;15.27;;;;;;;;;;4936555;29;20552;-78
2021/10/16 09:07:37;;;;;;;24.77;15.45;;;;;;;;;;4954118;29;20370;-78
2021/10/16 09:10:23;;;;;;;25.67;15.00;;;;;;;;;;4953814;29;20032;-78
2021/10/16 09:12:51;;;;;;;22.08;14.35;;;;;;;;;;4935791;29;20040;-78
2021/10/16 09:15:24;;;;;;;24.67;13.88;;;;;;;;;;4936098;29;20107;-79
2021/10/16 09:18:19;;;;;;;25.23;14.02;;;;;;;;;;4918731;29;20035;-79
2021/10/16 09:20:45;;;;;;;21.98;13.27;;;;;;;;;;4927872;29;20142;-78
2021/10/16 09:23:12;;;;;;;23.73;14.07;;;;;;;;;;4919701;29;20078;-78
2021/10/16 09:25:38;;;;;;;21.55;13.48;;;;;;;;;;4948917;29;20083;-78
2021/10/16 09:28:17;;;;;;;21.58;13.63;;;;;;;;;;4951795;29;20503;-78
2021/10/16 09:30:43;;;;;;;20.30;13.38;;;;;;;;;;4951723;29;20039;-78
2021/10/16 09:33:09;;;;;;;22.30;14.25;;;;;;;;;;4959252;29;20035;-78
2021/10/16 09:35:36;;;;;;;23.08;14.18;;;;;;;;;;4954560;29;20551;-77
2021/10/16 09:38:02;;;;;;;22.00;14.30;;;;;;;;;;4972040;29;20417;-77
2021/10/16 09:40:37;;;;;;;19.92;13.60;;;;;;;;;;4972232;29;20027;-78
2021/10/16 09:43:25;;;;;;;21.45;14.13;;;;;;;;;;4972849;29;20038;-78
2021/10/16 09:46:10;;;;;;;21.10;13.60;;;;;;;;;;4945602;29;20023;-78
2021/10/16 09:48:37;;;;;;;23.42;13.48;;;;;;;;;;4959952;29;20035;-77
2021/10/16 09:51:03;;;;;;;20.88;13.93;;;;;;;;;;4961741;29;20024;-78
2021/10/16 09:53:30;;;;;;;20.83;14.05;;;;;;;;;;4963905;29;20087;-77
2021/10/16 09:55:56;;;;;;;22.48;14.57;;;;;;;;;;4959887;29;20035;-77
2021/10/16 09:58:23;;;;;;;24.05;14.82;;;;;;;;;;4961098;29;20035;-76
2021/10/16 10:00:50;;;;;;;21.80;13.98;;;;;;;;;;4958413;29;20032;-78
2021/10/16 10:03:17;;;;;;;22.05;15.00;;;;;;;;;;4956328;29;20035;-78
2021/10/16 10:05:45;;;;;;;24.33;14.52;;;;;;;;;;4939258;29;20503;-78
2021/10/16 10:08:11;;;;;;;22.60;14.32;;;;;;;;;;4937928;29;20130;-78
2021/10/16 10:10:37;;;;;;;25.95;15.02;;;;;;;;;;4954700;29;20023;-78
2021/10/16 10:13:03;;;;;;;21.13;14.05;;;;;;;;;;4953846;29;20035;-78
2021/10/16 10:15:29;;;;;;;22.55;14.27;;;;;;;;;;4956304;29;20066;-78
2021/10/16 10:17:56;;;;;;;22.02;14.73;;;;;;;;;;4955050;29;20070;-78
2021/10/16 10:20:26;;;;;;;25.15;15.55;;;;;;;;;;4937372;29;20035;-78
2021/10/16 10:22:52;;;;;;;24.10;15.13;;;;;;;;;;4955059;29;20106;-77
2021/10/16 10:25:25;;;;;;;24.27;15.48;;;;;;;;;;4954686;29;20095;-77
2021/10/16 10:27:52;;;;;;;25.92;15.52;;;;;;;;;;4954798;28;20046;-77
2021/10/16 10:30:36;;;;;;;27.10;15.18;;;;;;;;;;4957632;29;20067;-77
2021/10/16 10:33:20;;;;;;;24.08;14.32;;;;;;;;;;4956389;29;20035;-78
2021/10/16 10:35:58;;;;;;;22.48;14.13;;;;;;;;;;4958097;29;20035;-77
2021/10/16 10:38:35;;;;;;;24.25;14.88;;;;;;;;;;4966043;29;20042;-78
2021/10/16 10:41:21;;;;;;;24.85;15.25;;;;;;;;;;4978480;28;20042;-78
2021/10/16 10:43:47;;;;;;;21.25;14.57;;;;;;;;;;4940809;29;20027;-77
2021/10/16 10:46:13;;;;;;;21.65;15.23;;;;;;;;;;4955850;29;20035;-78
2021/10/16 10:48:46;;;;;;;25.15;15.57;;;;;;;;;;4956556;29;20028;-77
2021/10/16 10:51:36;;;;;;;21.73;14.52;;;;;;;;;;4938516;29;20035;-78
2021/10/16 10:54:15;;;;;;;23.90;14.75;;;;;;;;;;4956649;29;20103;-76
2021/10/16 10:56:44;;;;;;;21.60;14.90;;;;;;;;;;4956374;29;20023;-77
2021/10/16 10:59:13;;;;;;;27.63;15.63;;;;;;;;;;4939307;29;20024;-77
2021/10/16 11:01:43;;;;;;;23.48;15.60;;;;;;;;;;4925901;29;20564;-77
2021/10/16 11:04:09;;;;;;;23.05;15.43;;;;;;;;;;4947250;29;20031;-77
2021/10/16 11:06:36;;;;;;;23.10;15.50;;;;;;;;;;4950962;28;20107;-76
2021/10/16 11:09:14;;;;;;;22.33;14.80;;;;;;;;;;4936821;29;20504;-77
2021/10/16 11:11:50;;;;;;;21.88;13.93;;;;;;;;;;4944792;29;20122;-79
2021/10/16 11:14:16;;;;;;;22.42;15.52;;;;;;;;;;4955901;29;20499;-78
2021/10/16 11:16:58;;;;;;;21.00;14.40;;;;;;;;;;4955985;29;20387;-78
2021/10/16 11:19:25;;;;;;;22.63;14.55;;;;;;;;;;4956393;29;20054;-77
2021/10/16 11:21:52;;;;;;;19.92;13.90;;;;;;;;;;4955802;29;20649;-76
2021/10/16 11:24:19;;;;;;;21.85;14.88;;;;;;;;;;4939250;29;20190;-77
2021/10/16 11:26:58;;;;;;;18.20;13.10;;;;;;;;;;4956134;29;20042;-76
2021/10/16 11:29:35;;;;;;;18.90;13.18;;;;;;;;;;4956357;29;20031;-77
2021/10/16 11:32:10;;;;;;;21.20;14.00;;;;;;;;;;4955840;29;20066;-77
2021/10/16 11:34:36;;;;;;;20.17;13.52;;;;;;;;;;4955889;29;20115;-77
2021/10/16 11:37:02;;;;;;;21.20;13.73;;;;;;;;;;4938378;29;20118;-77
2021/10/16 11:39:29;;;;;;;20.17;13.75;;;;;;;;;;4954776;28;20119;-76
2021/10/16 11:41:56;;;;;;;19.35;12.75;;;;;;;;;;4954875;29;20098;-77
2021/10/16 11:44:22;;;;;;;18.77;12.75;;;;;;;;;;4955545;29;20365;-77
2021/10/16 11:47:04;;;;;;;20.92;13.88;;;;;;;;;;4955027;29;20032;-78
2021/10/16 11:49:30;;;;;;;19.75;13.18;;;;;;;;;;4956690;29;20084;-78
2021/10/16 11:51:57;;;;;;;19.05;13.15;;;;;;;;;;4956651;29;20463;-77
2021/10/16 11:54:23;;;;;;;18.85;12.30;;;;;;;;;;4956936;29;20027;-77
2021/10/16 11:56:56;;;;;;;19.42;13.20;;;;;;;;;;4958584;29;20106;-77
2021/10/16 11:59:22;;;;;;;20.60;12.65;;;;;;;;;;4952123;29;20031;-77
2021/10/16 12:01:48;;;;;;;17.27;12.52;;;;;;;;;;4948018;29;20389;-77
2021/10/16 12:04:14;;;;;;;17.15;12.48;;;;;;;;;;4926564;28;20110;-77
2021/10/16 12:06:42;;;;;;;18.40;12.32;;;;;;;;;;4950451;29;20027;-77
2021/10/16 12:09:12;;;;;;;19.48;13.13;;;;;;;;;;4945800;28;20496;-77
2021/10/16 12:11:39;;;;;;;19.17;12.55;;;;;;;;;;4942510;29;20551;-77
2021/10/16 12:14:06;;;;;;;18.17;12.38;;;;;;;;;;4942740;29;20051;-78
2021/10/16 12:16:37;;;;;;;20.70;13.77;;;;;;;;;;4935701;29;20032;-78
2021/10/16 12:19:21;;;;;;;17.35;11.30;;;;;;;;;;4944566;29;20424;-78
2021/10/16 12:21:48;;;;;;;18.88;13.70;;;;;;;;;;4953941;29;20033;-77
2021/10/16 12:24:16;;;;;;;17.33;13.30;;;;;;;;;;4954204;29;20039;-77
2021/10/16 12:26:43;;;;;;;19.08;12.57;;;;;;;;;;4954148;29;20111;-78
2021/10/16 12:29:11;;;;;;;19.83;13.00;;;;;;;;;;4936649;29;20098;-78
2021/10/16 12:31:44;;;;;;;18.42;13.30;;;;;;;;;;4941577;28;20040;-77
2021/10/16 12:34:38;;;;;;;17.77;12.93;;;;;;;;;;4945029;29;20031;-78
2021/10/16 12:37:08;;;;;;;17.75;13.38;;;;;;;;;;4952105;29;20050;-77
2021/10/16 12:39:35;;;;;;;19.33;12.38;;;;;;;;;;4953578;29;20114;-77
2021/10/16 12:42:07;;;;;;;17.65;12.43;;;;;;;;;;4953423;29;20051;-77
2021/10/16 12:44:53;;;;;;;18.08;12.80;;;;;;;;;;4952458;29;20054;-78
2021/10/16 12:47:20;;;;;;;16.27;11.38;;;;;;;;;;4953147;29;20031;-77
2021/10/16 12:50:00;;;;;;;18.77;11.35;;;;;;;;;;4952900;29;20031;-78
2021/10/16 12:52:28;;;;;;;15.43;12.35;;;;;;;;;;4953258;28;20054;-78
2021/10/16 12:54:57;;;;;;;17.17;12.13;;;;;;;;;;4953885;29;20500;-77
2021/10/16 12:57:23;;;;;;;15.18;12.07;;;;;;;;;;4950261;28;20035;-78
2021/10/16 12:59:49;;;;;;;17.30;13.02;;;;;;;;;;4951338;29;20523;-78
2021/10/16 13:02:15;;;;;;;16.02;11.48;;;;;;;;;;4956755;29;20023;-79
2021/10/16 13:04:42;;;;;;;18.92;11.88;;;;;;;;;;4957968;29;20035;-79
2021/10/16 13:07:08;;;;;;;15.75;12.00;;;;;;;;;;4922966;29;20023;-78
2021/10/16 13:09:33;;;;;;;14.48;11.10;;;;;;;;;;4936230;29;20038;-78
2021/10/16 13:11:59;;;;;;;17.00;11.77;;;;;;;;;;4953672;29;20400;-78
2021/10/16 13:14:25;;;;;;;15.68;11.15;;;;;;;;;;4938979;29;20035;-78
2021/10/16 13:16:51;;;;;;;13.90;10.95;;;;;;;;;;4941494;29;20035;-79
2021/10/16 13:19:18;;;;;;;16.27;10.85;;;;;;;;;;4954010;29;20054;-78
2021/10/16 13:21:44;;;;;;;14.20;11.00;;;;;;;;;;4954686;29;20392;-78
2021/10/16 13:24:10;;;;;;;14.27;11.13;;;;;;;;;;4955967;29;20031;-78
2021/10/16 13:26:36;;;;;;;14.55;10.40;;;;;;;;;;4955254;29;20039;-79
2021/10/16 13:29:02;;;;;;;14.68;10.73;;;;;;;;;;4955914;29;20075;-78
2021/10/16 13:31:30;;;;;;;17.73;12.45;;;;;;;;;;4954082;29;20484;-77
2021/10/16 13:33:56;;;;;;;16.42;11.52;;;;;;;;;;4953068;29;20035;-78
2021/10/16 13:36:23;;;;;;;14.48;11.00;;;;;;;;;;4952751;28;20034;-78
2021/10/16 13:38:49;;;;;;;13.30;10.77;;;;;;;;;;4953927;28;20091;-78
2021/10/16 13:41:15;;;;;;;13.30;9.90;;;;;;;;;;4955247;29;20039;-78
2021/10/16 13:43:41;;;;;;;15.52;9.73;;;;;;;;;;4938579;29;20034;-78
2021/10/16 13:46:07;;;;;;;14.20;10.05;;;;;;;;;;4955363;29;20035;-78
2021/10/16 13:48:33;;;;;;;13.75;10.48;;;;;;;;;;4956154;29;20051;-79
2021/10/16 13:50:59;;;;;;;15.40;10.40;;;;;;;;;;4956330;29;20513;-77
2021/10/16 13:53:25;;;;;;;12.88;10.45;;;;;;;;;;4958628;29;20027;-76
2021/10/16 13:55:51;;;;;;;14.93;10.85;;;;;;;;;;4958042;29;20054;-77
2021/10/16 13:58:17;;;;;;;13.15;10.27;;;;;;;;;;4955835;29;20059;-78
2021/10/16 14:00:43;;;;;;;16.10;10.48;;;;;;;;;;4954678;29;20096;-78
2021/10/16 14:03:09;;;;;;;13.70;10.75;;;;;;;;;;4955972;28;20042;-78
2021/10/16 14:05:35;;;;;;;13.10;10.57;;;;;;;;;;4960197;29;20035;-77
2021/10/16 14:08:01;;;;;;;15.10;12.00;;;;;;;;;;4958962;29;20031;-78
2021/10/16 14:10:27;;;;;;;17.02;12.52;;;;;;;;;;4940808;29;20053;-78
2021/10/16 14:12:53;;;;;;;14.98;11.63;;;;;;;;;;4959005;29;20027;-78
2021/10/16 14:15:19;;;;;;;15.27;10.68;;;;;;;;;;4956837;29;20034;-78
2021/10/16 14:17:45;;;;;;;16.67;12.60;;;;;;;;;;4958500;29;20019;-78
2021/10/16 14:20:11;;;;;;;14.30;10.60;;;;;;;;;;4957953;29;20057;-79
2021/10/16 14:22:37;;;;;;;15.40;11.05;;;;;;;;;;4959038;29;20201;-79